Flight Track Log - Related Links

Times and Time Zones

All times are in EDT time to prevent confusion due to time zone crossing. See the TCF3516 flight status page for this flight to view local times or setup timezone preferences in your user account.

Time Position Orientation Groundspeed Altitude Reporting Facility
EDT Latitude Longitude Course Direction KTS MPH feet Rate Location/Type
Sat 05:08:32 PM 44.9000 -93.2500 230° Southwest 160 184 2,300  Level Minneapolis TRACON
Sat 05:09:18 PM 44.8919 -93.3058 259° West 180 207 3,400 1,778 Climbing Minneapolis Center
Sat 05:10:20 PM 44.8839 -93.3981 263° West 250 288 5,500 1,790 Climbing Minneapolis Center
Sat 05:11:00 PM 44.6527 -93.6947 235° Southwest  Level FlightAware Approximate
Sat 05:11:22 PM 44.8308 -93.4694 224° Southwest 274 315 7,100  Level Minneapolis Center
Sat 05:12:00 PM 44.5921 -93.8159 235° Southwest  Level FlightAware Approximate
Sat 05:12:23 PM 44.7586 -93.5058 200° South 280 322 8,700  Level Minneapolis Center
Sat 05:13:00 PM 44.5218 -93.9248 230° Southwest  Level FlightAware Approximate
Sat 05:13:25 PM 44.6814 -93.5806 215° Southwest 308 354 11,700  Level Minneapolis Center
Sat 05:14:27 PM 44.6358 -93.6814 238° Southwest 315 362 14,100 2,323 Climbing Minneapolis Center
Sat 05:15:29 PM 44.5475 -93.7264 200° South 349 402 16,500 2,244 Climbing Minneapolis Center
Sat 05:16:30 PM 44.4531 -93.7625 195° South 355 409 18,700 2,146 Climbing Minneapolis Center
Sat 05:17:32 PM 44.3567 -93.7992 195° South 358 412 20,900 2,049 Climbing Minneapolis Center
Sat 05:18:33 PM 44.2567 -93.8378 195° South 370 426 22,900 1,854 Climbing Minneapolis Center
Sat 05:19:35 PM 44.1558 -93.8761 195° South 375 432 24,700 1,854 Climbing Minneapolis Center
Sat 05:20:36 PM 44.0542 -93.9164 196° South 381 438 26,700 1,854 Climbing Minneapolis Center
Sat 05:21:38 PM 43.9325 -93.9628 195° South 378 435 28,500 1,403 Climbing Minneapolis Center
Sat 05:22:40 PM 43.8300 -94.0017 195° South 382 440 29,600 1,016 Climbing Minneapolis Center
Sat 05:23:42 PM 43.7244 -94.0411 195° South 390 449 30,600 1,073 Climbing Minneapolis Center
Sat 05:24:43 PM 43.6183 -94.0814 195° South 396 456 31,800 1,415 Climbing Minneapolis Center
Sat 05:25:45 PM 43.5150 -94.1208 195° South 392 451 33,500 1,500 Climbing Minneapolis Center
Sat 05:26:47 PM 43.3914 -94.1681 196° South 389 448 34,900 1,122 Climbing Minneapolis Center
Sat 05:27:48 PM 43.2956 -94.2033 195° South 381 438 35,800 537 Climbing Minneapolis Center
Sat 05:28:50 PM 43.2083 -94.2364 195° South 361 415 36,000 98 Climbing Minneapolis Center
Sat 05:29:51 PM 43.1158 -94.2858 201° Southwest 356 410 36,000  Level Minneapolis Center
Sat 05:30:53 PM 43.0208 -94.3547 208° Southwest 371 427 36,000  Level Minneapolis Center
Sat 05:31:55 PM 42.9342 -94.4133 206° Southwest 368 423 36,000  Level Minneapolis Center
Sat 05:32:56 PM 42.8239 -94.4853 206° Southwest 369 425 36,000  Level Minneapolis Center
Sat 05:33:58 PM 42.7322 -94.5467 206° Southwest 370 426 36,000  Level Minneapolis Center
Sat 05:34:59 PM 42.6436 -94.6075 207° Southwest 371 427 36,000  Level Minneapolis Center
Sat 05:36:01 PM 42.5500 -94.6675 205° Southwest 371 427 36,000  Level Minneapolis Center
Sat 05:37:02 PM 42.4764 -94.7164 206° Southwest 369 425 36,000  Level Minneapolis Center
Sat 05:38:04 PM 42.3464 -94.7997 205° Southwest 368 423 36,000  Level Minneapolis Center
Sat 05:39:06 PM 42.2536 -94.8617 206° Southwest 370 426 36,000  Level Minneapolis Center
Sat 05:40:08 PM 42.1614 -94.9231 206° Southwest 372 428 36,000  Level Minneapolis Center
Sat 05:41:09 PM 42.0675 -94.9803 204° Southwest 369 425 36,000  Level Minneapolis Center
Sat 05:42:11 PM 41.9733 -95.0417 206° Southwest 373 429 36,000  Level Minneapolis Center
Sat 05:43:12 PM 41.8786 -95.1022 205° Southwest 375 432 36,000  Level Minneapolis Center
Sat 05:44:14 PM 41.7844 -95.1619 205° Southwest 376 433 36,000  Level Minneapolis Center
Sat 05:45:16 PM 41.6892 -95.2233 206° Southwest 378 435 36,000  Level Minneapolis Center
Sat 05:46:29 PM 41.5947 -95.2842 206° Southwest 377 434 36,000  Level Minneapolis Center
Sat 05:47:31 PM 41.4586 -95.3703 205° Southwest 383 441 36,000  Level Minneapolis Center
Sat 05:48:33 PM 41.3608 -95.4314 205° Southwest 384 442 36,000  Level Minneapolis Center
Sat 05:49:34 PM 41.2622 -95.4933 205° Southwest 388 447 36,000  Level Minneapolis Center
Sat 05:50:36 PM 41.1639 -95.5553 205° Southwest 388 447 36,000  Level Minneapolis Center
Sat 05:51:38 PM 41.0653 -95.6172 205° Southwest 388 447 36,000  Level Minneapolis Center
Sat 05:52:39 PM 40.9683 -95.6789 206° Southwest 385 443 36,000  Level Minneapolis Center
Sat 05:53:41 PM 40.8706 -95.7389 205° Southwest 385 443 36,000  Level Minneapolis Center
Sat 05:54:55 PM 40.7739 -95.7989 205° Southwest 384 442 36,000  Level Minneapolis Center
Sat 05:55:57 PM 40.6581 -95.8706 205° Southwest 382 440 36,000  Level Minneapolis Center
Sat 05:56:58 PM 40.5603 -95.9311 205° Southwest 385 443 36,000  Level Minneapolis Center
Sat 05:58:12 PM 40.4269 -96.0181 206° Southwest 383 441 36,000  Level Minneapolis Center
Sat 05:59:14 PM 40.3339 -96.0889 210° Southwest 382 440 36,000  Level Minneapolis Center
Sat 06:00:15 PM 40.2472 -96.1033 187° South 389 448 36,000  Level Minneapolis Center
Sat 06:01:17 PM 40.1161 -96.1211 186° South 394 453 36,000  Level Minneapolis Center
Sat 06:01:50 PM 40.0494 -96.1319 187° South 392 451 36,000  Level Kansas City Center
Sat 06:02:53 PM 39.9475 -96.1594 192° South 391 450 36,000  Level Kansas City Center
Sat 06:03:53 PM 39.8372 -96.2014 196° South 391 450 36,000 -49 Level Kansas City Center
Sat 06:04:55 PM 39.7358 -96.2567 203° Southwest 391 450 35,900  Descending Kansas City Center
Sat 06:05:56 PM 39.6414 -96.3103 204° Southwest 389 448 36,000 50 Climbing Kansas City Center
Sat 06:06:55 PM 39.5286 -96.3739 204° Southwest 396 456 36,000  Level Kansas City Center
Sat 06:07:56 PM 39.4414 -96.4253 204° Southwest 400 460 36,000  Level Kansas City Center
Sat 06:08:59 PM 39.3411 -96.4900 207° Southwest 400 460 36,000  Level Kansas City Center
Sat 06:10:01 PM 39.2242 -96.5631 206° Southwest 402 463 36,000  Level Kansas City Center
Sat 06:11:00 PM 39.1253 -96.6203 204° Southwest 403 464 36,000  Level Kansas City Center
Sat 06:12:01 PM 39.0153 -96.6994 209° Southwest 406 467 36,000  Level Kansas City Center
Sat 06:13:04 PM 38.9194 -96.7686 209° Southwest 405 466 36,000  Level Kansas City Center
Sat 06:14:02 PM 38.8203 -96.8394 209° Southwest 406 467 36,000  Level Kansas City Center
Sat 06:15:06 PM 38.7219 -96.9097 209° Southwest 404 465 36,000  Level Kansas City Center
Sat 06:16:07 PM 38.6222 -96.9797 209° Southwest 407 468 36,000  Level Kansas City Center
Sat 06:17:08 PM 38.5239 -97.0489 209° Southwest 405 466 36,000  Level Kansas City Center
Sat 06:18:09 PM 38.4247 -97.1189 209° Southwest 407 468 36,000  Level Kansas City Center
Sat 06:19:10 PM 38.3250 -97.1869 208° Southwest 407 468 36,000  Level Kansas City Center
Sat 06:20:11 PM 38.2239 -97.2567 208° Southwest 410 472 36,000  Level Kansas City Center
Sat 06:21:12 PM 38.1222 -97.3256 208° Southwest 411 473 36,000  Level Kansas City Center
Sat 06:22:12 PM 38.0031 -97.3272 181° South 429 494 36,000  Level Kansas City Center
Sat 06:23:13 PM 37.8836 -97.3169 176° South 425 489 36,000  Level Kansas City Center
Sat 06:24:15 PM 37.7644 -97.3064 176° South 424 488 36,000  Level Kansas City Center
Sat 06:25:15 PM 37.6447 -97.2944 175° South 426 490 36,000  Level Kansas City Center
Sat 06:26:18 PM 37.5264 -97.2842 176° South 423 487 36,000  Level Kansas City Center
Sat 06:27:19 PM 37.4058 -97.2742 176° South 429 494 36,000  Level Kansas City Center
Sat 06:28:19 PM 37.2850 -97.2642 176° South 430 495 36,000  Level Kansas City Center
Sat 06:29:20 PM 37.1408 -97.2519 176° South 431 496 36,000  Level Kansas City Center
Sat 06:30:21 PM 37.0236 -97.2386 175° South 424 488 36,000  Level Kansas City Center
Sat 06:31:22 PM 36.9283 -97.2300 176° South 426 490 36,000 242 Level Kansas City Center
Sat 06:32:25 PM 36.7917 -97.2178 176° South 425 489 36,500 683 Climbing Kansas City Center
Sat 06:33:25 PM 36.6753 -97.2067 176° South 421 484 37,400 744 Climbing Kansas City Center
Sat 06:34:26 PM 36.5594 -97.1986 177° South 417 480 38,000 295 Climbing Kansas City Center
Sat 06:35:27 PM 36.4442 -97.1914 177° South 416 479 38,000  Level Kansas City Center
Sat 06:36:28 PM 36.3281 -97.1817 176° South 416 479 38,000  Level Kansas City Center
Sat 06:37:30 PM 36.2103 -97.1722 176° South 422 486 38,000  Level Kansas City Center
Sat 06:38:30 PM 36.0950 -97.1353 165° South 430 495 38,000  Level Kansas City Center
Sat 06:39:32 PM 35.9569 -97.0858 164° South 431 496 38,000  Level Kansas City Center
Sat 06:40:33 PM 35.8400 -97.0542 168° South 430 495 38,000  Level Kansas City Center
Sat 06:41:34 PM 35.7206 -97.0372 173° South 430 495 38,000  Level Kansas City Center
Sat 06:42:35 PM 35.6000 -97.0286 177° South 429 494 38,000  Level Kansas City Center
Sat 06:43:01 PM 35.5494 -97.0258 177° South 435 501 38,000  Level Fort Worth Center
Sat 06:44:01 PM 35.4306 -97.0186 177° South 435 501 38,000  Level Fort Worth Center
Sat 06:45:01 PM 35.3203 -97.0600 197° South 420 483 38,000  Level Fort Worth Center
Sat 06:46:01 PM 35.2161 -97.1492 215° Southwest 403 464 38,000  Level Fort Worth Center
Sat 06:47:01 PM 35.1267 -97.2408 220° Southwest 410 472 38,000  Level Fort Worth Center
Sat 06:48:01 PM 35.0411 -97.3325 221° Southwest 420 483 38,000  Level Fort Worth Center
Sat 06:49:01 PM 34.9619 -97.4339 226° Southwest 420 483 38,000  Level Fort Worth Center
Sat 06:50:01 PM 34.8911 -97.5375 230° Southwest 408 470 38,000  Level Fort Worth Center
Sat 06:51:01 PM 34.8219 -97.6461 232° Southwest 408 470 38,000  Level Fort Worth Center
Sat 06:52:01 PM 34.7569 -97.7547 234° Southwest 408 470 38,000  Level Fort Worth Center
Sat 06:53:01 PM 34.6836 -97.8556 229° Southwest 408 470 38,000  Level Fort Worth Center
Sat 06:54:01 PM 34.5833 -97.9206 208° Southwest 398 458 38,000  Level Fort Worth Center
Sat 06:55:01 PM 34.4725 -97.9525 193° South 398 458 38,000  Level Fort Worth Center
Sat 06:56:01 PM 34.3517 -97.9417 176° South 412 474 38,000  Level Fort Worth Center
Sat 06:57:01 PM 34.2350 -97.8983 163° South 417 480 38,000  Level Fort Worth Center
Sat 06:58:01 PM 34.1308 -97.8200 148° Southeast 423 487 38,000  Level Fort Worth Center
Sat 06:59:01 PM 34.0414 -97.7469 146° Southeast 423 487 38,000  Level Fort Worth Center
Sat 07:00:01 PM 33.9353 -97.6664 148° Southeast 444 511 38,000  Level Fort Worth Center
Sat 07:01:01 PM 33.8289 -97.5886 149° Southeast 449 517 38,000  Level Fort Worth Center
Sat 07:02:01 PM 33.7247 -97.5108 148° Southeast 449 517 38,000  Level Fort Worth Center
Sat 07:03:01 PM 33.6183 -97.4333 149° Southeast 449 517 38,000  Level Fort Worth Center
Sat 07:04:01 PM 33.5117 -97.3561 149° Southeast 449 517 38,000  Level Fort Worth Center
Sat 07:05:01 PM 33.4053 -97.2767 148° Southeast 449 517 38,000  Level Fort Worth Center
Sat 07:06:01 PM 33.3008 -97.1997 148° Southeast 449 517 38,000  Level Fort Worth Center
Sat 07:07:01 PM 33.1964 -97.1231 148° Southeast 449 517 38,000  Level Fort Worth Center
Sat 07:08:01 PM 33.0897 -97.0414 147° Southeast 449 517 38,000  Level Fort Worth Center
Sat 07:09:01 PM 32.9808 -96.9678 150° Southeast 449 517 38,000  Level Fort Worth Center
Sat 07:10:01 PM 32.8594 -96.8967 154° Southeast 438 504 38,000  Level Fort Worth Center
Sat 07:11:01 PM 32.7508 -96.8625 165° South 443 510 38,000  Level Fort Worth Center
Sat 07:12:01 PM 32.6211 -96.8264 167° South 443 510 38,000 -350 Level Fort Worth Center
Sat 07:13:01 PM 32.5019 -96.7950 167° South 438 504 37,300 -850 Descending Fort Worth Center
Sat 07:14:01 PM 32.3828 -96.7592 166° South 438 504 36,300 -1,050 Descending Fort Worth Center
Sat 07:15:01 PM 32.2617 -96.7256 167° South 438 504 35,200 -1,050 Descending Fort Worth Center
Sat 07:16:01 PM 32.1653 -96.6992 167° South 438 504 34,200 -1,100 Descending Fort Worth Center
Sat 07:17:01 PM 32.0189 -96.6586 167° South 449 517 33,000 -1,200 Descending Fort Worth Center
Sat 07:18:01 PM 31.9039 -96.6253 166° South 443 510 31,800 -1,000 Descending Fort Worth Center
Sat 07:19:01 PM 31.7828 -96.5872 165° South 443 510 31,000 -585 Descending Fort Worth Center
Sat 07:19:23 PM 31.7425 -96.5772 168° South 442 509 31,000  Level Houston Center
Sat 07:20:24 PM 31.6217 -96.5436 167° South 440 506 31,000  Level Houston Center
Sat 07:21:26 PM 31.5008 -96.5078 166° South 442 509 31,000  Level Houston Center
Sat 07:22:27 PM 31.3819 -96.4633 162° South 442 509 31,000 -439 Level Houston Center
Sat 07:23:29 PM 31.2631 -96.4156 161° South 445 512 30,100 -1,161 Descending Houston Center
Sat 07:24:31 PM 31.1564 -96.3431 150° Southeast 439 505 28,600 -1,854 Descending Houston Center
Sat 07:25:32 PM 31.0517 -96.2728 150° Southeast 430 495 26,300 -2,390 Descending Houston Center
Sat 07:26:34 PM 30.9494 -96.2039 150° Southeast 421 484 23,700 -2,537 Descending Houston Center
Sat 07:27:35 PM 30.8528 -96.1364 149° Southeast 403 464 21,100 -2,651 Descending Houston Center
Sat 07:28:00 PM 30.8056 -96.1064 151° Southeast 394 453 19,900 -2,323 Descending Houston Center
Sat 07:28:37 PM 30.7603 -96.0722 147° Southeast 383 441 18,700 -2,361 Descending Houston Center
Sat 07:29:01 PM 30.7119 -96.0394 150° Southeast 369 425 17,500 -2,557 Descending Houston Center
Sat 07:29:38 PM 30.6600 -96.0042 150° Southeast 366 421 16,100 -2,262 Descending Houston Center
Sat 07:30:02 PM 30.6247 -95.9789 148° Southeast 353 406 15,200 -2,164 Descending Houston Center
Sat 07:30:39 PM 30.5739 -95.9456 151° Southeast 353 406 13,900 -2,066 Descending Houston Center
Sat 07:31:03 PM 30.5425 -95.9253 151° Southeast 350 403 13,100 -1,839 Descending Houston Center
Sat 07:31:41 PM 30.4914 -95.8889 148° Southeast 345 397 12,000 -985 Descending Houston Center
Sat 07:32:10 PM 30.4467 -95.8589 150° Southeast 354 407 12,000 -295 Level Houston Center
Sat 07:32:42 PM 30.4117 -95.8197 136° Southeast 360 414 11,700 -800 Descending Houston Center
Sat 07:33:10 PM 30.3725 -95.7803 139° Southeast 351 404 11,200 -968 Descending Houston Center
Sat 07:33:44 PM 30.3397 -95.7444 137° Southeast 351 404 10,700 -885 Descending Houston Center
Sat 07:34:11 PM 30.3008 -95.7064 140° Southeast 347 399 10,300 -677 Descending Houston Center
Sat 07:34:46 PM 30.2678 -95.6697 136° Southeast 348 400 10,000 -295 Descending Houston Center
Sat 07:35:12 PM 30.2269 -95.6306 140° Southeast 345 397 10,000  Level Houston Center
Sat 07:35:47 PM 30.1983 -95.5969 135° Southeast 340 391 10,000 -109 Level Houston Center
Sat 07:36:07 PM 30.1711 -95.5694 139° Southeast 282 325 9,900 -1,161 Descending Houston Center
Sat 07:36:49 PM 30.1389 -95.5339 136° Southeast 305 351 8,800 -2,066 Descending Houston Center
Sat 07:37:08 PM 30.1156 -95.5108 139° Southeast 274 315 7,800 -1,574 Descending Houston Center
Sat 07:37:50 PM 30.1044 -95.4639 105° East 275 316 7,200 -787 Descending Houston Center
Sat 07:38:09 PM 30.1050 -95.4181 89° East 274 315 7,000 -968 Descending Houston Center
Sat 07:38:52 PM 30.1053 -95.3583 90° East 273 314 6,200 -984 Descending Houston Center
Sat 07:39:10 PM 30.1056 -95.3311 89° East 267 307 6,000 -197 Descending Houston Center
Sat 07:39:53 PM 30.1061 -95.2772 89° East 255 293 6,000 -98 Level Houston Center
Sat 07:40:11 PM 30.1047 -95.2539 94° East 225 259 5,900 -1,548 Descending Houston Center
Sat 07:40:55 PM 30.1058 -95.2050 88° East 229 264 4,400 -2,000 Descending Houston Center
Sat 07:41:11 PM 30.1064 -95.1811 88° East 230 265 3,900 -1,672 Descending Houston Center
Sat 07:41:56 PM 30.0875 -95.1419 119° Southeast 228 262 2,700 -1,672 Descending Houston Center
Sat 07:42:12 PM 30.0669 -95.1425 181° South 218 251 2,200 -689 Descending Houston Center
Sat 07:42:57 PM 30.0283 -95.1481 187° South 219 252 2,000 -179 Descending Houston Center
Sat 07:43:19 PM 30.0083 -95.1667 219° Southwest 183 211 2,000  Level Houston Center
Sat 07:43:59 PM 29.9994 -95.1961 251° West 199 229 2,000  Level Houston Center

Login

Don't have an account? Register now (free) for customized features, flight alerts, and more!